createdAt,value
2019-03-26T00:04:08.498Z,10.17
2019-03-26T00:09:00.886Z,8.77
2019-03-26T00:13:53.337Z,9.80
2019-03-26T00:18:45.685Z,12.47
2019-03-26T00:23:38.393Z,11.60
2019-03-26T00:28:31.013Z,9.03
2019-03-26T00:33:35.849Z,9.37
2019-03-26T00:38:17.548Z,12.00
2019-03-26T00:43:10.270Z,13.40
2019-03-26T00:48:02.746Z,15.13
2019-03-26T00:52:55.129Z,14.33
2019-03-26T00:57:47.470Z,8.67
2019-03-26T01:02:40.169Z,11.17
2019-03-26T01:07:32.465Z,9.90
2019-03-26T01:12:24.851Z,9.27
2019-03-26T01:17:17.565Z,10.00
2019-03-26T01:22:10.233Z,10.97
2019-03-26T01:27:02.607Z,8.87
2019-03-26T01:31:55.513Z,10.60
2019-03-26T01:36:48.157Z,13.47
2019-03-26T01:41:40.165Z,9.47
2019-03-26T01:46:32.941Z,9.60
2019-03-26T01:51:25.633Z,9.90
2019-03-26T01:56:18.407Z,10.67
2019-03-26T02:01:11.161Z,10.77
2019-03-26T02:06:03.525Z,9.57
2019-03-26T02:10:56.403Z,9.47
2019-03-26T02:15:48.951Z,9.67
2019-03-26T02:20:41.520Z,10.00
2019-03-26T02:25:34.300Z,11.00
2019-03-26T02:30:26.647Z,13.70
2019-03-26T02:35:19.516Z,13.10
2019-03-26T02:40:11.930Z,10.87
2019-03-26T02:45:05.927Z,10.40
2019-03-26T02:49:58.597Z,14.33
2019-03-26T02:54:51.046Z,9.70
2019-03-26T02:59:43.677Z,14.87
2019-03-26T03:04:36.357Z,15.83
2019-03-26T03:09:28.697Z,14.40
2019-03-26T03:14:21.406Z,14.00
2019-03-26T03:19:15.896Z,13.93
2019-03-26T03:24:07.874Z,14.13
2019-03-26T03:29:00.429Z,13.87
2019-03-26T03:33:52.910Z,12.13
2019-03-26T03:38:45.217Z,13.90
2019-03-26T03:43:37.921Z,15.20
2019-03-26T03:48:30.291Z,14.90
2019-03-26T03:53:23.738Z,14.00
2019-03-26T03:58:16.957Z,14.73
2019-03-26T04:03:10.224Z,13.83
2019-03-26T04:08:02.653Z,15.03
2019-03-26T04:12:55.215Z,13.87
2019-03-26T04:17:47.762Z,18.50
2019-03-26T04:22:40.317Z,15.63
2019-03-26T04:27:34.709Z,16.90
2019-03-26T04:32:27.110Z,15.40
2019-03-26T04:37:19.400Z,12.87
2019-03-26T04:42:11.998Z,18.27
2019-03-26T04:47:04.563Z,16.80
2019-03-26T04:51:57.305Z,21.10
2019-03-26T04:56:50.180Z,20.23
2019-03-26T05:01:42.773Z,13.03
2019-03-26T05:06:38.346Z,14.80
2019-03-26T05:11:29.664Z,18.00
2019-03-26T05:16:22.546Z,26.37
2019-03-26T05:21:15.242Z,16.80
2019-03-26T05:26:07.438Z,29.93
2019-03-26T05:30:59.847Z,30.53
2019-03-26T05:35:52.639Z,30.03
2019-03-26T05:40:44.862Z,25.07
2019-03-26T05:45:37.624Z,26.63
2019-03-26T05:50:30.189Z,24.50
2019-03-26T05:55:24.033Z,24.23
2019-03-26T06:00:18.553Z,33.47
2019-03-26T06:05:10.717Z,31.47
2019-03-26T06:10:04.263Z,29.23
2019-03-26T06:14:57.050Z,37.47
2019-03-26T06:19:49.373Z,36.60
2019-03-26T06:24:41.941Z,39.63
2019-03-26T06:29:34.431Z,71.97
2019-03-26T06:34:27.158Z,48.37
2019-03-26T06:39:19.481Z,40.30
2019-03-26T06:44:12.330Z,54.23
2019-03-26T06:49:04.886Z,43.07
2019-03-26T06:53:57.510Z,32.90
2019-03-26T06:58:49.788Z,46.13
2019-03-26T07:03:42.455Z,33.43
2019-03-26T07:08:35.091Z,38.73
2019-03-26T07:13:27.384Z,22.77
2019-03-26T07:18:19.889Z,16.60
2019-03-26T07:23:12.350Z,15.53
2019-03-26T07:28:05.213Z,16.23
2019-03-26T07:32:57.695Z,11.43
2019-03-26T07:37:49.914Z,10.93
2019-03-26T07:42:42.478Z,10.85
2019-03-26T07:47:34.886Z,6.83
2019-03-26T07:52:27.546Z,8.33
2019-03-26T07:57:19.948Z,9.45
2019-03-26T08:02:12.566Z,8.33
2019-03-26T08:07:05.014Z,8.33
2019-03-26T08:11:57.802Z,9.53
2019-03-26T08:16:50.179Z,7.37
2019-03-26T08:21:42.656Z,8.78
2019-03-26T08:26:35.356Z,8.50
2019-03-26T08:31:27.902Z,11.57
2019-03-26T08:36:21.193Z,12.90
2019-03-26T08:41:13.874Z,8.20
2019-03-26T08:46:06.430Z,12.35
2019-03-26T08:50:58.868Z,11.12
2019-03-26T08:55:51.241Z,10.68
2019-03-26T09:01:03.189Z,10.18
2019-03-26T09:05:55.721Z,10.95
2019-03-26T09:10:51.891Z,9.80
2019-03-26T09:15:42.013Z,8.00
2019-03-26T09:20:34.730Z,17.12
2019-03-26T09:25:27.090Z,12.25
2019-03-26T09:30:19.650Z,17.07
2019-03-26T09:35:12.993Z,14.93
2019-03-26T09:40:08.594Z,15.20
2019-03-26T09:45:00.874Z,9.38
2019-03-26T09:49:53.517Z,10.95
2019-03-26T09:54:46.074Z,10.25
2019-03-26T09:59:38.865Z,11.70
2019-03-26T10:04:31.390Z,13.80
2019-03-26T10:09:23.839Z,15.53
2019-03-26T10:14:16.658Z,10.20
2019-03-26T10:19:08.985Z,15.98
2019-03-26T10:24:01.704Z,14.95
2019-03-26T10:28:54.185Z,11.40
2019-03-26T10:33:46.958Z,16.30
2019-03-26T10:38:39.605Z,13.83
2019-03-26T10:43:31.897Z,11.38
2019-03-26T10:48:24.378Z,14.47
2019-03-26T10:53:16.757Z,12.55
2019-03-26T10:58:09.169Z,19.62
2019-03-26T11:03:01.689Z,15.00
2019-03-26T11:07:54.551Z,12.98
2019-03-26T11:12:46.865Z,15.93
2019-03-26T11:17:39.770Z,14.80
2019-03-26T11:22:32.440Z,12.90
2019-03-26T11:27:25.006Z,14.78
2019-03-26T11:32:16.975Z,13.55
2019-03-26T11:37:09.560Z,12.95
2019-03-26T11:42:02.198Z,12.25
2019-03-26T11:46:54.610Z,12.23
2019-03-26T11:51:47.214Z,14.60
2019-03-26T11:56:39.829Z,14.80
2019-03-26T12:01:32.042Z,10.13
2019-03-26T12:06:24.660Z,11.53
2019-03-26T12:11:17.109Z,12.28
2019-03-26T12:16:09.501Z,14.00
2019-03-26T12:21:02.391Z,10.13
2019-03-26T12:25:54.903Z,11.05
2019-03-26T12:30:47.348Z,8.95
2019-03-26T12:35:40.061Z,12.47
2019-03-26T12:40:32.661Z,8.73
2019-03-26T12:45:25.070Z,10.45
2019-03-26T12:50:17.897Z,8.13
2019-03-26T12:55:10.318Z,8.63
2019-03-26T13:00:03.209Z,8.85
2019-03-26T13:04:55.613Z,7.33
2019-03-26T13:09:48.007Z,6.20
2019-03-26T13:14:40.265Z,8.13
2019-03-26T13:19:32.614Z,16.35
2019-03-26T13:24:25.036Z,8.40
2019-03-26T13:29:17.641Z,7.75
2019-03-26T13:34:10.311Z,7.42
2019-03-26T13:39:02.774Z,8.55
2019-03-26T13:43:55.038Z,5.83
2019-03-26T13:48:47.854Z,7.40
2019-03-26T13:53:40.248Z,7.42
2019-03-26T13:58:32.558Z,6.05
2019-03-26T14:03:25.041Z,8.08
2019-03-26T14:08:17.549Z,6.45
2019-03-26T14:13:10.039Z,5.92
2019-03-26T14:18:02.477Z,8.58
2019-03-26T14:22:55.124Z,6.92
2019-03-26T14:27:47.818Z,7.60
2019-03-26T14:32:40.465Z,10.38
2019-03-26T14:37:33.181Z,9.60
2019-03-26T14:42:25.515Z,8.65
2019-03-26T14:47:18.174Z,8.25
2019-03-26T14:52:10.882Z,9.58
2019-03-26T14:57:03.881Z,6.42
2019-03-26T15:01:56.371Z,7.42
2019-03-26T15:06:48.977Z,7.85
2019-03-26T15:11:41.481Z,8.98
2019-03-26T15:16:34.088Z,13.83
2019-03-26T15:21:26.698Z,10.10
2019-03-26T15:26:18.924Z,9.05
2019-03-26T15:31:11.924Z,7.72
2019-03-26T15:36:04.977Z,9.60
2019-03-26T15:40:57.625Z,10.55
2019-03-26T15:45:50.430Z,9.95
2019-03-26T15:50:47.025Z,11.48
2019-03-26T15:55:40.216Z,10.63
2019-03-26T16:00:32.670Z,9.03
2019-03-26T16:05:25.142Z,11.85
2019-03-26T16:10:17.608Z,8.73
2019-03-26T16:15:10.502Z,7.17
2019-03-26T16:20:03.318Z,8.03
2019-03-26T16:24:55.955Z,8.35
2019-03-26T16:29:48.226Z,8.68
2019-03-26T16:34:40.913Z,9.98
2019-03-26T16:39:33.405Z,8.68
2019-03-26T16:44:28.123Z,7.70
2019-03-26T16:49:20.315Z,7.53
2019-03-26T16:54:12.833Z,13.80
2019-03-26T16:59:05.385Z,11.95
2019-03-26T17:03:58.198Z,7.53
2019-03-26T17:08:50.614Z,8.48
2019-03-26T17:13:43.547Z,20.55
2019-03-26T17:18:36.083Z,10.43
2019-03-26T17:23:28.438Z,13.30
2019-03-26T17:28:21.114Z,9.80
2019-03-26T17:33:13.813Z,8.28
2019-03-26T17:38:06.782Z,6.92
2019-03-26T17:42:59.002Z,9.53
2019-03-26T17:47:51.446Z,9.18
2019-03-26T17:52:43.872Z,5.92
2019-03-26T17:57:36.726Z,20.68
2019-03-26T18:02:30.947Z,11.38
2019-03-26T18:07:23.528Z,7.78
2019-03-26T18:12:29.912Z,9.60
2019-03-26T18:17:11.558Z,9.87
2019-03-26T18:22:04.869Z,7.23
2019-03-26T18:27:00.709Z,11.43
2019-03-26T18:31:53.337Z,8.07
2019-03-26T18:36:45.742Z,9.83
2019-03-26T18:41:38.405Z,10.47
2019-03-26T18:46:30.661Z,10.73
2019-03-26T18:51:22.973Z,19.07
2019-03-26T18:56:15.453Z,17.97
2019-03-26T19:01:08.212Z,9.80
2019-03-26T19:06:00.702Z,24.77
2019-03-26T19:10:53.322Z,20.10
2019-03-26T19:15:45.981Z,26.53
2019-03-26T19:20:38.341Z,20.43
2019-03-26T19:25:30.678Z,22.00
2019-03-26T19:30:23.337Z,36.53
2019-03-26T19:35:16.144Z,26.13
2019-03-26T19:40:08.808Z,32.83
2019-03-26T19:45:01.192Z,40.87
2019-03-26T19:49:53.959Z,33.57
2019-03-26T19:54:46.584Z,83.77
2019-03-26T19:59:38.881Z,23.53
2019-03-26T20:04:31.312Z,30.20
2019-03-26T20:09:24.269Z,36.53
2019-03-26T20:14:17.021Z,28.73
2019-03-26T20:19:09.405Z,21.70
2019-03-26T20:24:02.170Z,19.47
2019-03-26T20:28:56.157Z,27.80
2019-03-26T20:33:48.822Z,21.73
2019-03-26T20:38:41.126Z,22.13
2019-03-26T20:43:37.374Z,24.97
2019-03-26T20:48:27.937Z,29.30
2019-03-26T20:53:20.469Z,18.93
2019-03-26T20:58:12.661Z,28.43
2019-03-26T21:03:05.328Z,46.77
2019-03-26T21:07:57.814Z,19.70
2019-03-26T21:12:50.241Z,13.80
2019-03-26T21:17:43.141Z,13.53
2019-03-26T21:22:36.140Z,12.40
2019-03-26T21:27:28.479Z,8.83
2019-03-26T21:32:21.109Z,20.97
2019-03-26T21:37:13.943Z,24.10
2019-03-26T21:42:06.805Z,26.63
2019-03-26T21:46:58.707Z,23.43
2019-03-26T21:51:51.456Z,19.60
2019-03-26T21:56:44.140Z,16.10
2019-03-26T22:01:39.777Z,13.37
2019-03-26T22:06:32.186Z,19.87
2019-03-26T22:11:24.636Z,20.93
2019-03-26T22:16:16.929Z,28.80
2019-03-26T22:21:09.747Z,22.70
2019-03-26T22:26:02.041Z,20.13
2019-03-26T22:30:54.917Z,23.87
2019-03-26T22:35:47.641Z,27.03
2019-03-26T22:40:40.091Z,27.67
2019-03-26T22:45:32.254Z,27.63
2019-03-26T22:50:24.845Z,14.50
2019-03-26T22:55:17.633Z,13.30
2019-03-26T23:00:13.227Z,14.23
2019-03-26T23:05:07.642Z,10.50
2019-03-26T23:10:00.389Z,12.90
2019-03-26T23:14:52.620Z,14.60
2019-03-26T23:19:45.388Z,16.03
2019-03-26T23:24:37.965Z,13.13
2019-03-26T23:29:30.588Z,17.47
2019-03-26T23:34:23.057Z,55.53
2019-03-26T23:39:15.608Z,44.83
2019-03-26T23:44:07.741Z,18.10
2019-03-26T23:49:00.301Z,16.70
2019-03-26T23:53:52.778Z,30.30
2019-03-26T23:58:45.385Z,20.43
